Time;durP1;ratioP1;P1;durP2;ratioP2;P2;SDS_P1;SDS_P2;PMS_P1;PMS_P2;Temp;Humidity;BMP_temperature;BMP_pressure;BME280_temperature;BME280_humidity;BME280_pressure;Samples;Min_cycle;Max_cycle;Signal;HPM_P1;HPM_P2
2023/12/13 00:00:54;;;;;;;42.60;26.55;;;8.20;99.90;;;;;;4918782;28;20047;-75
2023/12/13 00:03:21;;;;;;;43.03;28.65;;;8.10;99.90;;;;;;4939564;28;20797;-77
2023/12/13 00:05:48;;;;;;;43.53;28.00;;;8.10;99.90;;;;;;4936383;28;20078;-77
2023/12/13 00:08:19;;;;;;;45.08;25.92;;;8.10;99.90;;;;;;4947979;28;20664;-77
2023/12/13 00:10:47;;;;;;;48.47;29.17;;;8.00;99.90;;;;;;4928848;28;20055;-76
2023/12/13 00:13:14;;;;;;;38.90;27.40;;;8.10;99.90;;;;;;4938403;28;20521;-77
2023/12/13 00:15:41;;;;;;;35.33;26.00;;;8.20;99.90;;;;;;4943409;28;20051;-77
2023/12/13 00:18:08;;;;;;;39.10;24.20;;;8.20;99.90;;;;;;4939776;28;20051;-77
2023/12/13 00:20:35;;;;;;;35.22;24.02;;;8.20;99.90;;;;;;4941755;28;20560;-78
2023/12/13 00:23:04;;;;;;;34.70;24.70;;;8.20;99.90;;;;;;4917041;28;20055;-77
2023/12/13 00:25:32;;;;;;;40.83;25.83;;;8.30;99.90;;;;;;4944798;28;20051;-77
2023/12/13 00:27:59;;;;;;;32.15;23.27;;;8.30;99.90;;;;;;4943886;28;20127;-75
2023/12/13 00:30:26;;;;;;;36.10;24.63;;;8.30;99.90;;;;;;4929190;28;20071;-74
2023/12/13 00:32:53;;;;;;;31.50;22.58;;;8.20;99.90;;;;;;4935645;28;20055;-74
2023/12/13 00:35:20;;;;;;;33.70;20.73;;;8.10;99.90;;;;;;4936696;28;20134;-72
2023/12/13 00:37:47;;;;;;;31.35;20.15;;;8.10;99.90;;;;;;4931910;28;20071;-71
2023/12/13 00:40:14;;;;;;;31.17;19.40;;;8.00;99.90;;;;;;4937192;28;20039;-73
2023/12/13 00:42:41;;;;;;;23.60;17.80;;;8.00;99.90;;;;;;4944815;28;20454;-73
2023/12/13 00:45:08;;;;;;;25.13;16.65;;;8.00;99.90;;;;;;4928794;28;20206;-74
2023/12/13 00:47:35;;;;;;;21.25;17.00;;;8.00;99.90;;;;;;4920727;29;20497;-73
2023/12/13 00:50:03;;;;;;;25.83;17.83;;;8.10;99.90;;;;;;4937546;28;20588;-72
2023/12/13 00:52:32;;;;;;;30.05;17.80;;;8.10;99.90;;;;;;4935944;28;20047;-72
2023/12/13 00:55:00;;;;;;;28.80;18.52;;;8.20;99.90;;;;;;4915572;28;20043;-72
2023/12/13 00:57:27;;;;;;;25.95;18.02;;;8.20;99.90;;;;;;4934310;28;20043;-73
2023/12/13 00:59:54;;;;;;;26.45;17.48;;;8.20;99.90;;;;;;4931264;28;20062;-71
2023/12/13 01:02:21;;;;;;;26.05;19.25;;;8.30;99.90;;;;;;4922221;28;20106;-73
2023/12/13 01:04:48;;;;;;;26.08;19.33;;;8.20;99.90;;;;;;4907494;28;20063;-72
2023/12/13 01:07:15;;;;;;;48.47;19.80;;;8.20;99.90;;;;;;4913751;28;20723;-75
2023/12/13 01:09:42;;;;;;;21.67;13.45;;;8.20;99.90;;;;;;4922930;28;20046;-71
2023/12/13 01:12:10;;;;;;;16.42;10.07;;;8.00;99.90;;;;;;4908464;28;21039;-72
2023/12/13 01:14:36;;;;;;;14.50;9.75;;;8.10;99.90;;;;;;4933551;28;20035;-71
2023/12/13 01:17:03;;;;;;;15.10;9.43;;;8.10;99.90;;;;;;4916978;28;20137;-71
2023/12/13 01:19:30;;;;;;;20.73;9.93;;;8.20;99.90;;;;;;4935013;28;20143;-73
2023/12/13 01:21:57;;;;;;;16.83;10.88;;;8.30;99.90;;;;;;4906697;28;20055;-75
2023/12/13 01:24:24;;;;;;;21.77;12.85;;;8.30;99.90;;;;;;4893950;29;20135;-75
2023/12/13 01:26:51;;;;;;;21.00;12.50;;;8.30;99.90;;;;;;4929857;28;20047;-73
2023/12/13 01:29:22;;;;;;;18.02;12.25;;;8.40;99.90;;;;;;4911447;29;20062;-75
2023/12/13 01:31:49;;;;;;;22.40;13.73;;;8.40;99.90;;;;;;4912376;28;20048;-73
2023/12/13 01:34:16;;;;;;;22.70;14.57;;;8.50;99.90;;;;;;4929472;28;20056;-73
2023/12/13 01:36:43;;;;;;;20.17;11.82;;;8.40;99.90;;;;;;4939151;28;20039;-74
2023/12/13 01:39:11;;;;;;;21.70;14.30;;;8.30;99.90;;;;;;4927844;28;20047;-72
2023/12/13 01:41:38;;;;;;;22.63;14.18;;;8.30;99.90;;;;;;4926889;28;20090;-73
2023/12/13 01:44:05;;;;;;;20.52;14.02;;;8.20;99.90;;;;;;4931652;28;20376;-72
2023/12/13 01:46:33;;;;;;;18.20;12.23;;;8.20;99.90;;;;;;4936036;28;20599;-72
2023/12/13 01:49:01;;;;;;;16.40;11.88;;;8.20;99.90;;;;;;4915824;28;20057;-72
2023/12/13 01:51:29;;;;;;;13.75;9.95;;;8.10;99.90;;;;;;4899130;29;20510;-72
2023/12/13 01:53:56;;;;;;;13.70;10.65;;;8.10;99.90;;;;;;4927393;28;20585;-72
2023/12/13 01:56:23;;;;;;;14.75;10.93;;;8.10;99.90;;;;;;4915434;29;20774;-73
2023/12/13 01:58:50;;;;;;;17.02;10.77;;;8.10;99.90;;;;;;4940571;28;20096;-73
2023/12/13 02:01:17;;;;;;;22.95;12.55;;;8.10;99.90;;;;;;4931333;28;20686;-74
2023/12/13 02:03:44;;;;;;;13.00;10.35;;;8.20;99.90;;;;;;4935270;28;20074;-72
2023/12/13 02:06:11;;;;;;;16.02;12.15;;;8.20;99.90;;;;;;4929225;28;20082;-73
2023/12/13 02:08:38;;;;;;;15.82;12.48;;;8.10;99.90;;;;;;4934970;28;20058;-72
2023/12/13 02:11:05;;;;;;;14.82;10.63;;;8.20;99.90;;;;;;4930139;28;20042;-74
2023/12/13 02:13:35;;;;;;;11.05;9.98;;;8.10;99.90;;;;;;4927590;29;20047;-73
2023/12/13 02:16:02;;;;;;;12.52;11.25;;;8.10;99.90;;;;;;4915835;28;20126;-74
2023/12/13 02:18:30;;;;;;;13.90;12.27;;;8.10;99.90;;;;;;4914469;29;20517;-74
2023/12/13 02:20:58;;;;;;;16.88;12.20;;;8.10;99.90;;;;;;4927692;28;20039;-73
2023/12/13 02:23:24;;;;;;;20.90;14.02;;;8.20;99.90;;;;;;4908513;28;20259;-77
2023/12/13 02:25:57;;;;;;;18.60;13.43;;;8.20;99.90;;;;;;4929645;28;20054;-76
2023/12/13 02:28:29;;;;;;;24.48;15.75;;;8.20;99.90;;;;;;4916388;29;20074;-76
2023/12/13 02:31:03;;;;;;;21.70;16.40;;;8.30;99.90;;;;;;4913678;28;20043;-75
2023/12/13 02:33:30;;;;;;;19.27;16.27;;;8.30;99.90;;;;;;4920045;28;20055;-75
2023/12/13 02:36:00;;;;;;;35.80;18.40;;;8.30;99.90;;;;;;4938342;28;20047;-73
2023/12/13 02:38:27;;;;;;;25.45;15.52;;;8.30;99.90;;;;;;4929962;28;20141;-72
2023/12/13 02:40:53;;;;;;;22.33;17.05;;;8.40;99.90;;;;;;4928082;28;20039;-74
2023/12/13 02:43:21;;;;;;;29.38;17.13;;;8.30;99.90;;;;;;4909370;28;20059;-74
2023/12/13 02:45:48;;;;;;;17.33;13.73;;;8.30;99.90;;;;;;4913914;28;20142;-75
2023/12/13 02:48:15;;;;;;;12.18;10.95;;;8.20;99.90;;;;;;4906880;28;20047;-74
2023/12/13 02:50:42;;;;;;;12.63;11.35;;;8.10;99.90;;;;;;4912565;28;20059;-75
2023/12/13 02:53:09;;;;;;;15.77;11.70;;;8.10;99.90;;;;;;4926896;28;20056;-75
2023/12/13 02:55:36;;;;;;;17.02;10.57;;;8.10;99.90;;;;;;4921721;28;20058;-74
2023/12/13 02:58:07;;;;;;;12.65;10.55;;;8.00;99.90;;;;;;4918088;28;20062;-75
2023/12/13 03:00:34;;;;;;;14.60;9.90;;;8.00;99.90;;;;;;4929006;28;20074;-75
2023/12/13 03:03:01;;;;;;;12.25;8.93;;;8.00;99.90;;;;;;4917984;28;20048;-74
2023/12/13 03:05:28;;;;;;;15.10;10.35;;;8.00;99.90;;;;;;4925059;28;20051;-75
2023/12/13 03:07:55;;;;;;;14.77;8.80;;;8.00;99.90;;;;;;4917110;28;20056;-75
2023/12/13 03:10:22;;;;;;;8.32;7.63;;;8.00;99.90;;;;;;4922031;28;20495;-75
2023/12/13 03:12:49;;;;;;;8.93;7.78;;;8.00;99.90;;;;;;4930837;28;20066;-75
2023/12/13 03:15:16;;;;;;;9.35;6.93;;;8.00;99.90;;;;;;4921438;28;20054;-76
2023/12/13 03:18:06;;;;;;;8.70;6.40;;;8.00;99.90;;;;;;4900306;29;20059;-73
2023/12/13 03:20:32;;;;;;;8.43;6.15;;;8.00;99.90;;;;;;4913433;29;20490;-72
2023/12/13 03:23:00;;;;;;;8.63;5.50;;;8.00;99.90;;;;;;4908673;29;20044;-71
2023/12/13 03:25:26;;;;;;;6.47;5.43;;;8.00;99.90;;;;;;4893112;29;20051;-73
2023/12/13 03:27:53;;;;;;;10.13;5.32;;;8.00;99.90;;;;;;4913163;29;20044;-72
2023/12/13 03:30:20;;;;;;;10.73;5.25;;;7.90;99.90;;;;;;4900399;29;21408;-72
2023/12/13 03:32:46;;;;;;;10.80;5.57;;;7.90;99.90;;;;;;4891990;29;20158;-72
2023/12/13 03:35:15;;;;;;;8.82;5.20;;;8.00;99.90;;;;;;4878893;29;20047;-72
2023/12/13 03:37:41;;;;;;;9.40;5.45;;;7.90;99.90;;;;;;4906047;29;20058;-71
2023/12/13 03:40:09;;;;;;;8.38;5.40;;;7.90;99.90;;;;;;4893973;29;20048;-72
2023/12/13 03:42:36;;;;;;;9.73;6.10;;;7.90;99.90;;;;;;4893481;29;20076;-72
2023/12/13 03:45:03;;;;;;;11.85;6.72;;;7.90;99.90;;;;;;4906031;29;20044;-72
2023/12/13 03:47:30;;;;;;;12.18;6.38;;;7.90;99.90;;;;;;4866496;29;20059;-72
2023/12/13 03:49:57;;;;;;;13.07;5.88;;;7.90;99.90;;;;;;4905809;29;20511;-72
2023/12/13 03:52:24;;;;;;;9.90;5.60;;;8.00;99.90;;;;;;4903281;29;20037;-72
2023/12/13 03:54:51;;;;;;;10.18;6.18;;;8.00;99.90;;;;;;4882400;29;20052;-72
2023/12/13 03:57:18;;;;;;;9.75;6.13;;;8.00;99.90;;;;;;4894280;29;20681;-72
2023/12/13 03:59:44;;;;;;;7.68;6.65;;;8.00;99.90;;;;;;4915322;29;20051;-72
2023/12/13 04:02:11;;;;;;;7.85;6.63;;;8.00;99.90;;;;;;4883926;29;20036;-73
2023/12/13 04:04:38;;;;;;;10.88;6.20;;;8.00;99.90;;;;;;4905962;29;20054;-73
2023/12/13 04:07:07;;;;;;;10.15;7.15;;;8.00;99.90;;;;;;4889020;29;20638;-72
2023/12/13 04:09:34;;;;;;;9.10;6.95;;;8.00;99.90;;;;;;4892078;29;20046;-72
2023/12/13 04:12:02;;;;;;;10.38;6.40;;;8.00;99.90;;;;;;4891065;29;20044;-72
2023/12/13 04:14:29;;;;;;;9.00;6.35;;;8.00;99.90;;;;;;4897048;29;20075;-72
2023/12/13 04:16:55;;;;;;;7.82;7.03;;;8.00;99.90;;;;;;4887629;29;20040;-73
2023/12/13 04:19:22;;;;;;;10.95;6.80;;;8.00;99.90;;;;;;4889788;29;20179;-73
2023/12/13 04:21:49;;;;;;;21.02;7.03;;;8.00;99.90;;;;;;4910987;29;20044;-72
2023/12/13 04:24:16;;;;;;;13.90;7.45;;;8.00;99.90;;;;;;4898814;29;21118;-72
2023/12/13 04:26:43;;;;;;;10.27;7.43;;;8.00;99.90;;;;;;4904083;29;20056;-72
2023/12/13 04:29:09;;;;;;;10.73;6.18;;;8.00;99.90;;;;;;4881057;29;20051;-71
2023/12/13 04:31:36;;;;;;;8.80;5.75;;;8.00;99.90;;;;;;4912766;29;20044;-72
2023/12/13 04:34:03;;;;;;;8.77;5.75;;;8.00;99.90;;;;;;4891747;29;20075;-72
2023/12/13 04:36:30;;;;;;;8.13;5.60;;;8.10;99.90;;;;;;4905335;29;20994;-71
2023/12/13 04:38:57;;;;;;;6.32;5.72;;;8.00;99.90;;;;;;4878758;29;20083;-73
2023/12/13 04:41:24;;;;;;;9.77;6.50;;;8.10;99.90;;;;;;4890603;29;20108;-72
2023/12/13 04:43:51;;;;;;;12.88;6.57;;;8.10;99.90;;;;;;4887513;29;20570;-72
2023/12/13 04:46:18;;;;;;;12.10;6.88;;;8.00;99.90;;;;;;4899541;29;20059;-72
2023/12/13 04:48:45;;;;;;;9.57;7.80;;;8.00;99.90;;;;;;4885228;29;20048;-72
2023/12/13 04:51:11;;;;;;;10.38;6.50;;;8.10;99.90;;;;;;4877978;29;20345;-71
2023/12/13 04:53:39;;;;;;;7.93;7.22;;;8.10;99.90;;;;;;4905637;29;20048;-71
2023/12/13 04:56:06;;;;;;;8.40;7.60;;;8.10;99.90;;;;;;4879278;29;20091;-71
2023/12/13 04:58:32;;;;;;;8.10;7.05;;;8.10;99.90;;;;;;4897994;29;20044;-72
2023/12/13 05:00:59;;;;;;;11.13;7.80;;;8.10;99.90;;;;;;4889534;29;20055;-73
2023/12/13 05:03:28;;;;;;;9.32;7.60;;;8.10;99.90;;;;;;4884594;29;20063;-73
2023/12/13 05:05:54;;;;;;;12.00;7.80;;;8.10;99.90;;;;;;4866672;29;20036;-72
2023/12/13 05:08:21;;;;;;;11.98;8.25;;;8.10;99.90;;;;;;4880181;29;20650;-73
2023/12/13 05:10:48;;;;;;;10.73;7.95;;;8.20;99.90;;;;;;4891267;29;20808;-72
2023/12/13 05:13:15;;;;;;;8.93;8.02;;;8.10;99.90;;;;;;4884515;29;20078;-71
2023/12/13 05:15:42;;;;;;;11.25;7.90;;;8.10;99.90;;;;;;4888184;29;20040;-72
2023/12/13 05:18:09;;;;;;;15.25;7.93;;;8.00;99.90;;;;;;4893967;29;20760;-71
2023/12/13 05:20:36;;;;;;;13.35;8.82;;;7.90;99.90;;;;;;4883277;29;20087;-72
2023/12/13 05:23:02;;;;;;;13.43;8.35;;;7.90;99.90;;;;;;4911397;29;20514;-74
2023/12/13 05:25:29;;;;;;;15.70;8.15;;;7.80;99.90;;;;;;4873834;29;20392;-73
2023/12/13 05:27:56;;;;;;;15.25;9.02;;;7.80;99.90;;;;;;4890079;29;20807;-75
2023/12/13 05:30:23;;;;;;;15.43;7.90;;;7.90;99.90;;;;;;4898496;29;20047;-74
2023/12/13 05:32:51;;;;;;;15.32;9.43;;;7.90;99.90;;;;;;4901207;29;20071;-74
2023/12/13 05:35:18;;;;;;;16.33;9.00;;;7.80;99.90;;;;;;4895506;29;20622;-74
2023/12/13 05:37:45;;;;;;;14.95;8.48;;;7.80;99.90;;;;;;4901569;29;20449;-74
2023/12/13 05:40:14;;;;;;;19.42;10.07;;;7.80;99.90;;;;;;4905988;29;20664;-74
2023/12/13 05:42:40;;;;;;;16.17;9.43;;;7.80;99.90;;;;;;4911490;29;20134;-74
2023/12/13 05:45:08;;;;;;;16.27;9.35;;;7.80;99.90;;;;;;4902509;29;20285;-72
2023/12/13 05:47:34;;;;;;;11.45;10.07;;;7.80;99.90;;;;;;4900326;29;20048;-72
2023/12/13 05:50:04;;;;;;;19.13;10.85;;;7.80;99.90;;;;;;4879230;29;20064;-70
2023/12/13 05:52:32;;;;;;;16.15;10.73;;;7.80;99.90;;;;;;4874943;29;20048;-72
2023/12/13 05:54:59;;;;;;;17.98;12.30;;;7.80;99.90;;;;;;4900452;29;20040;-71
2023/12/13 05:57:26;;;;;;;17.27;12.98;;;7.80;99.90;;;;;;4868817;29;20103;-73
2023/12/13 05:59:52;;;;;;;22.20;16.17;;;7.80;99.90;;;;;;4910680;29;20068;-72
2023/12/13 06:02:19;;;;;;;17.30;12.93;;;7.80;99.90;;;;;;4887434;29;20120;-72
2023/12/13 06:04:47;;;;;;;19.65;11.52;;;7.70;99.90;;;;;;4902723;29;20135;-72
2023/12/13 06:07:14;;;;;;;13.52;11.25;;;7.70;99.90;;;;;;4910789;29;20688;-74
2023/12/13 06:09:42;;;;;;;16.60;11.15;;;7.80;99.90;;;;;;4883614;29;20048;-72
2023/12/13 06:12:09;;;;;;;15.85;9.63;;;7.70;99.90;;;;;;4896812;29;20126;-72
2023/12/13 06:14:35;;;;;;;18.92;9.85;;;7.70;99.90;;;;;;4898963;29;20052;-72
2023/12/13 06:17:03;;;;;;;12.57;9.82;;;7.70;99.90;;;;;;4894735;29;20040;-71
2023/12/13 06:19:29;;;;;;;15.05;9.48;;;7.60;99.90;;;;;;4909987;29;20055;-71
2023/12/13 06:21:57;;;;;;;13.50;8.75;;;7.60;99.90;;;;;;4911805;29;20048;-74
2023/12/13 06:24:24;;;;;;;17.30;10.65;;;7.70;99.90;;;;;;4902951;29;20693;-73
2023/12/13 06:26:50;;;;;;;19.02;13.02;;;7.80;99.90;;;;;;4900539;29;20120;-72
2023/12/13 06:29:17;;;;;;;25.88;14.05;;;7.80;99.90;;;;;;4875889;29;20169;-75
2023/12/13 06:31:44;;;;;;;16.35;13.00;;;7.80;99.90;;;;;;4882702;29;20044;-74
2023/12/13 06:34:12;;;;;;;17.25;11.40;;;7.70;99.90;;;;;;4885268;29;20052;-71
2023/12/13 06:36:39;;;;;;;13.52;11.18;;;7.70;99.90;;;;;;4904802;29;20104;-74
2023/12/13 06:39:08;;;;;;;11.35;8.57;;;7.70;99.90;;;;;;4885848;29;20044;-74
2023/12/13 06:41:36;;;;;;;13.25;8.73;;;7.70;99.90;;;;;;4882813;29;20051;-73
2023/12/13 06:44:03;;;;;;;13.13;9.98;;;7.70;99.90;;;;;;4906023;29;20117;-71
2023/12/13 06:46:30;;;;;;;16.17;10.90;;;7.70;99.90;;;;;;4894602;29;20060;-71
2023/12/13 06:48:57;;;;;;;11.88;10.68;;;7.80;99.90;;;;;;4905461;29;20071;-72
2023/12/13 06:51:24;;;;;;;16.80;13.77;;;7.80;99.90;;;;;;4893201;29;20510;-70
2023/12/13 06:53:51;;;;;;;15.50;14.20;;;7.90;99.90;;;;;;4884751;29;20096;-70
2023/12/13 06:56:18;;;;;;;14.40;12.70;;;7.90;99.90;;;;;;4893680;29;20100;-72
2023/12/13 06:58:45;;;;;;;16.00;14.40;;;8.00;99.90;;;;;;4894598;29;20696;-72
2023/12/13 07:01:12;;;;;;;17.67;16.23;;;7.90;99.90;;;;;;4895632;29;20171;-72
2023/12/13 07:03:39;;;;;;;19.17;16.77;;;7.90;99.90;;;;;;4877000;29;20139;-71
2023/12/13 07:06:06;;;;;;;20.90;17.42;;;8.00;99.90;;;;;;4885957;29;20071;-71
2023/12/13 07:08:34;;;;;;;19.30;17.27;;;8.00;99.90;;;;;;4866355;29;20461;-72
2023/12/13 07:11:03;;;;;;;20.63;18.23;;;8.00;99.90;;;;;;4881052;29;20697;-72
2023/12/13 07:13:30;;;;;;;16.73;14.93;;;8.10;99.90;;;;;;4884417;29;20140;-71
2023/12/13 07:15:57;;;;;;;17.13;15.32;;;7.90;99.90;;;;;;4903486;29;20112;-71
2023/12/13 07:18:25;;;;;;;17.17;15.43;;;7.90;99.90;;;;;;4913227;29;20051;-71
2023/12/13 07:20:52;;;;;;;19.92;17.92;;;7.90;99.90;;;;;;4916067;29;20112;-72
2023/12/13 07:23:19;;;;;;;22.00;17.23;;;7.80;99.90;;;;;;4893159;29;20051;-72
2023/12/13 07:25:46;;;;;;;15.93;14.25;;;7.80;99.90;;;;;;4905963;28;20048;-74
2023/12/13 07:28:13;;;;;;;15.98;14.50;;;7.80;99.90;;;;;;4902343;29;20058;-71
2023/12/13 07:30:41;;;;;;;13.48;12.57;;;7.80;99.90;;;;;;4872768;29;20044;-72
2023/12/13 07:33:18;;;;;;;16.05;14.65;;;7.80;99.90;;;;;;4883084;29;20050;-72
2023/12/13 07:35:47;;;;;;;17.48;15.75;;;7.80;99.90;;;;;;4894136;29;20036;-72
2023/12/13 07:38:17;;;;;;;14.80;13.32;;;7.80;99.90;;;;;;4887972;29;20043;-72
2023/12/13 07:40:46;;;;;;;14.82;13.60;;;7.80;99.90;;;;;;4905857;29;20044;-72
2023/12/13 07:43:13;;;;;;;16.08;14.40;;;7.80;99.90;;;;;;4897397;29;20039;-73
2023/12/13 07:45:40;;;;;;;16.55;14.90;;;7.80;99.90;;;;;;4878573;29;20146;-73
2023/12/13 07:48:07;;;;;;;21.17;16.33;;;7.80;99.90;;;;;;4888233;29;20530;-72
2023/12/13 07:50:53;;;;;;;19.60;17.35;;;7.80;99.90;;;;;;4902698;29;20048;-72
2023/12/13 07:53:20;;;;;;;15.95;14.30;;;7.90;99.90;;;;;;4895054;29;20036;-73
2023/12/13 07:55:46;;;;;;;16.20;14.82;;;7.90;99.90;;;;;;4878829;29;20059;-73
2023/12/13 07:58:15;;;;;;;20.20;18.05;;;7.90;99.90;;;;;;4899505;29;20048;-76
2023/12/13 08:00:42;;;;;;;19.42;17.65;;;7.90;99.90;;;;;;4908861;29;20060;-77
2023/12/13 08:03:09;;;;;;;19.98;17.98;;;8.00;99.90;;;;;;4869042;29;20054;-76
2023/12/13 08:05:36;;;;;;;19.50;17.83;;;8.00;99.90;;;;;;4865952;29;20051;-76
2023/12/13 08:08:03;;;;;;;18.25;16.55;;;8.00;99.90;;;;;;4891351;29;20139;-76
2023/12/13 08:10:30;;;;;;;18.25;16.75;;;8.00;99.90;;;;;;4895372;29;20055;-76
2023/12/13 08:12:57;;;;;;;17.90;16.17;;;8.00;99.90;;;;;;4896975;29;20138;-76
2023/12/13 08:15:24;;;;;;;16.33;14.68;;;8.00;99.90;;;;;;4891233;29;20138;-76
2023/12/13 08:17:51;;;;;;;15.30;14.02;;;7.90;99.90;;;;;;4892633;29;20052;-76
2023/12/13 08:20:18;;;;;;;15.40;13.90;;;7.90;99.90;;;;;;4883020;29;20491;-78
2023/12/13 08:22:46;;;;;;;17.15;14.93;;;7.90;99.90;;;;;;4898270;29;20059;-76
2023/12/13 08:25:13;;;;;;;20.08;15.32;;;7.90;99.90;;;;;;4891478;29;20052;-77
2023/12/13 08:27:40;;;;;;;14.82;13.32;;;8.00;99.90;;;;;;4886724;29;20063;-76
2023/12/13 08:30:07;;;;;;;15.18;13.88;;;8.00;99.90;;;;;;4902975;29;20454;-76
2023/12/13 08:32:34;;;;;;;14.52;13.32;;;8.00;99.90;;;;;;4887991;29;20048;-76
2023/12/13 08:35:01;;;;;;;15.75;13.48;;;8.00;99.90;;;;;;4895059;29;20081;-76
2023/12/13 08:37:29;;;;;;;17.13;13.68;;;7.90;99.90;;;;;;4907961;29;20671;-76
2023/12/13 08:39:57;;;;;;;16.23;12.88;;;8.00;99.90;;;;;;4885508;29;20055;-77
2023/12/13 08:42:23;;;;;;;13.82;12.48;;;7.90;99.90;;;;;;4907242;29;20530;-76
2023/12/13 08:45:02;;;;;;;14.57;13.13;;;8.00;99.90;;;;;;4895318;29;20578;-76
2023/12/13 08:47:29;;;;;;;16.60;12.40;;;8.00;99.90;;;;;;4900626;29;20053;-77
2023/12/13 08:49:56;;;;;;;18.05;12.90;;;7.90;99.90;;;;;;4881929;29;20131;-76
2023/12/13 08:52:23;;;;;;;14.77;13.15;;;7.90;99.90;;;;;;4889672;29;20827;-76
2023/12/13 08:54:50;;;;;;;12.48;11.38;;;7.90;99.90;;;;;;4905934;29;20734;-77
2023/12/13 08:57:17;;;;;;;13.00;11.63;;;7.90;99.90;;;;;;4879917;29;20546;-77
2023/12/13 08:59:43;;;;;;;14.23;12.35;;;7.80;99.90;;;;;;4882672;29;20547;-76
2023/12/13 09:02:13;;;;;;;15.45;13.82;;;7.80;99.90;;;;;;4904750;29;20087;-77
2023/12/13 09:04:39;;;;;;;18.35;13.57;;;7.80;99.90;;;;;;4905629;29;21366;-76
2023/12/13 09:07:06;;;;;;;16.58;13.60;;;7.90;99.90;;;;;;4890521;29;20143;-76
2023/12/13 09:09:37;;;;;;;21.23;14.35;;;8.00;99.90;;;;;;4885838;29;20037;-77
2023/12/13 09:12:05;;;;;;;15.55;13.68;;;8.10;99.90;;;;;;4911151;29;20068;-78
2023/12/13 09:14:32;;;;;;;15.90;14.20;;;8.20;99.90;;;;;;4883578;29;20499;-79
2023/12/13 09:17:01;;;;;;;18.25;13.50;;;8.20;99.90;;;;;;4889340;29;20132;-77
2023/12/13 09:19:27;;;;;;;19.55;13.40;;;8.20;99.90;;;;;;4888245;29;20044;-77
2023/12/13 09:21:54;;;;;;;18.08;14.52;;;8.20;99.90;;;;;;4885921;29;20739;-77
2023/12/13 09:24:23;;;;;;;16.13;14.43;;;8.20;99.90;;;;;;4891418;29;20132;-79
2023/12/13 09:26:50;;;;;;;18.25;14.27;;;8.30;99.90;;;;;;4895284;29;20127;-79
2023/12/13 09:29:16;;;;;;;16.48;14.70;;;8.40;99.90;;;;;;4888263;29;20056;-78
2023/12/13 09:31:43;;;;;;;15.25;13.65;;;8.40;99.90;;;;;;4894767;29;20677;-81
2023/12/13 09:50:11;;;;;;;22.95;13.98;;;8.20;99.90;;;;;;4908112;29;20043;-80
2023/12/13 09:52:43;;;;;;;14.35;12.07;;;8.20;99.90;;;;;;4894704;29;20052;-78
2023/12/13 09:55:11;;;;;;;17.45;12.50;;;8.20;99.90;;;;;;4890478;29;20407;-80
2023/12/13 09:57:38;;;;;;;15.40;11.73;;;8.20;99.90;;;;;;4870611;29;20104;-79
2023/12/13 10:00:06;;;;;;;19.00;12.13;;;8.20;99.90;;;;;;4910124;29;20082;-78
2023/12/13 10:02:46;;;;;;;15.52;11.15;;;8.20;99.90;;;;;;4902164;29;20108;-79
2023/12/13 10:05:17;;;;;;;14.60;10.60;;;8.10;99.90;;;;;;4901846;29;20056;-77
2023/12/13 10:07:44;;;;;;;12.40;11.02;;;8.10;99.90;;;;;;4904046;29;20130;-79
2023/12/13 10:10:11;;;;;;;17.90;12.48;;;8.10;99.90;;;;;;4903950;29;20045;-79
2023/12/13 10:12:38;;;;;;;14.90;11.70;;;8.20;99.90;;;;;;4909402;29;20073;-79
2023/12/13 10:15:12;;;;;;;13.05;10.52;;;8.20;99.90;;;;;;4892552;29;20139;-79
2023/12/13 10:17:39;;;;;;;16.98;9.85;;;8.20;99.90;;;;;;4869311;29;20044;-78
2023/12/13 10:20:10;;;;;;;16.92;10.07;;;8.20;99.90;;;;;;4886394;29;20051;-80
2023/12/13 10:22:38;;;;;;;19.10;11.50;;;8.40;99.90;;;;;;4910027;29;20059;-79
2023/12/13 10:25:06;;;;;;;14.75;10.80;;;8.40;99.90;;;;;;4888810;29;20545;-82
2023/12/13 10:27:33;;;;;;;20.67;10.25;;;8.40;99.90;;;;;;4894024;29;20108;-79
2023/12/13 10:30:01;;;;;;;18.08;10.73;;;8.30;99.90;;;;;;4888425;29;20045;-80
2023/12/13 10:32:28;;;;;;;15.70;10.48;;;8.30;99.90;;;;;;4886289;29;20056;-79
2023/12/13 10:34:57;;;;;;;17.67;10.70;;;8.40;99.90;;;;;;4896728;29;20547;-78
2023/12/13 10:37:27;;;;;;;15.38;9.50;;;8.50;99.90;;;;;;4915765;29;20069;-79
2023/12/13 10:39:57;;;;;;;17.25;10.77;;;8.60;99.90;;;;;;4904281;29;20036;-78
2023/12/13 10:42:25;;;;;;;17.42;12.13;;;8.60;99.90;;;;;;4895061;29;20054;-79
2023/12/13 10:44:53;;;;;;;24.10;13.57;;;8.70;99.90;;;;;;4924778;29;20055;-79
2023/12/13 10:47:25;;;;;;;23.73;16.35;;;8.70;99.90;;;;;;4914875;29;20056;-80
2023/12/13 10:49:54;;;;;;;23.42;14.07;;;8.80;99.90;;;;;;4897118;29;20138;-80
2023/12/13 10:52:26;;;;;;;20.90;13.55;;;8.80;99.90;;;;;;4915070;29;20048;-80
2023/12/13 10:54:54;;;;;;;20.67;13.15;;;8.80;99.90;;;;;;4912970;29;20127;-79
2023/12/13 10:57:21;;;;;;;15.85;12.18;;;8.80;99.90;;;;;;4885815;29;20054;-80
2023/12/13 10:59:49;;;;;;;22.50;13.93;;;8.70;99.90;;;;;;4876188;29;20052;-79
2023/12/13 11:02:18;;;;;;;16.63;13.27;;;8.70;99.90;;;;;;4915855;28;20052;-80
2023/12/13 11:04:47;;;;;;;24.05;12.95;;;8.60;99.90;;;;;;4883098;29;20057;-81
2023/12/13 11:07:14;;;;;;;38.28;20.67;;;8.60;99.90;;;;;;4917856;29;20052;-84
2023/12/13 11:09:53;;;;;;;33.83;16.17;;;8.70;99.90;;;;;;4902481;29;20699;-84
2023/12/13 11:12:20;;;;;;;19.40;12.75;;;8.70;99.90;;;;;;4915149;29;20050;-82
2023/12/13 11:14:51;;;;;;;22.50;14.45;;;8.70;99.90;;;;;;4900644;29;20060;-82
2023/12/13 11:17:21;;;;;;;27.83;16.73;;;8.60;99.90;;;;;;4894467;29;20070;-82
2023/12/13 11:19:50;;;;;;;15.18;12.77;;;8.80;99.90;;;;;;4905399;29;20056;-85
2023/12/13 11:22:23;;;;;;;17.70;14.60;;;8.80;99.90;;;;;;4894919;29;20114;-82
2023/12/13 11:25:02;;;;;;;30.08;17.05;;;8.90;99.90;;;;;;4908579;29;20599;-84
2023/12/13 11:27:31;;;;;;;45.65;23.35;;;8.80;99.90;;;;;;4898815;29;20048;-85
2023/12/13 11:30:12;;;;;;;30.48;18.48;;;9.00;99.90;;;;;;4875974;29;20533;-84
2023/12/13 11:32:46;;;;;;;63.85;32.75;;;9.10;99.90;;;;;;4902146;29;20502;-82
2023/12/13 11:35:15;;;;;;;60.03;31.27;;;9.10;99.90;;;;;;4908811;29;20055;-83
2023/12/13 11:37:48;;;;;;;33.17;20.70;;;9.10;99.90;;;;;;4888750;29;20160;-82
2023/12/13 11:40:15;;;;;;;37.70;20.60;;;9.20;99.90;;;;;;4898141;29;20056;-83
2023/12/13 11:42:42;;;;;;;98.85;48.42;;;9.20;99.90;;;;;;4890200;29;20060;-83
2023/12/13 11:45:09;;;;;;;32.30;22.65;;;9.10;99.90;;;;;;4908005;29;20843;-82
2023/12/13 11:47:37;;;;;;;13.65;12.18;;;9.20;99.90;;;;;;4901515;29;20071;-84
2023/12/13 11:50:05;;;;;;;18.35;14.70;;;9.30;99.90;;;;;;4886223;29;20459;-82
2023/12/13 11:52:32;;;;;;;14.50;13.10;;;9.40;99.90;;;;;;4900847;29;20415;-85
2023/12/13 11:55:00;;;;;;;22.55;15.88;;;9.40;99.90;;;;;;4892068;29;20049;-82
2023/12/13 11:57:27;;;;;;;13.02;11.77;;;9.40;99.90;;;;;;4891573;29;20047;-82
2023/12/13 11:59:55;;;;;;;14.55;11.75;;;9.40;99.90;;;;;;4906930;29;20071;-83
2023/12/13 12:02:22;;;;;;;14.25;12.52;;;9.50;99.90;;;;;;4885229;29;20041;-82
2023/12/13 12:04:50;;;;;;;21.65;12.55;;;9.50;99.90;;;;;;4878270;29;20048;-82
2023/12/13 12:07:18;;;;;;;14.48;11.95;;;9.50;99.90;;;;;;4900637;29;20051;-82
2023/12/13 12:09:56;;;;;;;17.92;13.40;;;9.60;99.90;;;;;;4904796;29;20107;-83
2023/12/13 12:12:24;;;;;;;14.82;12.57;;;9.50;99.90;;;;;;4897198;29;20054;-83
2023/12/13 12:14:51;;;;;;;15.95;12.73;;;9.60;99.90;;;;;;4902438;29;20770;-82
2023/12/13 12:17:23;;;;;;;18.80;12.80;;;9.50;99.90;;;;;;4895226;29;20052;-84
2023/12/13 12:19:51;;;;;;;20.27;15.38;;;9.50;99.90;;;;;;4924119;29;21366;-84
2023/12/13 12:22:20;;;;;;;16.27;12.98;;;9.60;99.90;;;;;;4905817;29;20051;-83
2023/12/13 12:24:51;;;;;;;17.40;13.60;;;9.60;99.90;;;;;;4913930;29;20140;-82
2023/12/13 12:27:24;;;;;;;14.88;13.52;;;9.60;99.90;;;;;;4917012;29;20051;-81
2023/12/13 12:29:51;;;;;;;19.75;16.30;;;9.60;99.90;;;;;;4871522;29;20136;-81
2023/12/13 12:32:19;;;;;;;32.03;19.58;;;9.70;99.90;;;;;;4901225;29;20048;-82
2023/12/13 12:34:47;;;;;;;21.88;16.38;;;9.60;99.90;;;;;;4899907;29;20055;-81
2023/12/13 12:37:15;;;;;;;22.63;19.40;;;9.60;99.90;;;;;;4914794;29;20171;-81
2023/12/13 12:39:42;;;;;;;23.27;21.08;;;9.60;99.90;;;;;;4903401;29;20509;-82
2023/12/13 12:42:09;;;;;;;19.60;17.58;;;9.60;99.90;;;;;;4877590;29;20091;-81
2023/12/13 12:44:36;;;;;;;21.75;17.30;;;9.50;99.90;;;;;;4895168;29;20569;-82
2023/12/13 12:47:03;;;;;;;20.75;18.63;;;9.60;99.90;;;;;;4884110;29;20043;-84
2023/12/13 12:49:30;;;;;;;18.35;16.70;;;9.60;99.90;;;;;;4876272;29;20115;-82
2023/12/13 12:51:58;;;;;;;20.50;18.33;;;9.60;99.90;;;;;;4889906;29;20479;-84
2023/12/13 12:54:25;;;;;;;21.70;17.27;;;9.60;99.90;;;;;;4889255;29;20059;-84
2023/12/13 12:56:52;;;;;;;19.40;17.75;;;9.70;99.90;;;;;;4902065;29;20395;-82
2023/12/13 12:59:21;;;;;;;19.25;17.45;;;9.70;99.90;;;;;;4896014;29;20059;-83